sensor_id;sensor_type;location;lat;lon;timestamp;temperature;humidity
11505;DHT22;5809;53.262;10.408;2023-09-19T00:02:46;16.20;99.90
11505;DHT22;5809;53.262;10.408;2023-09-19T00:05:13;16.20;99.90
11505;DHT22;5809;53.262;10.408;2023-09-19T00:15:06;16.10;99.90
11505;DHT22;5809;53.262;10.408;2023-09-19T00:27:28;15.90;99.90
11505;DHT22;5809;53.262;10.408;2023-09-19T00:29:55;15.90;99.90
11505;DHT22;5809;53.262;10.408;2023-09-19T00:37:41;15.90;99.90
11505;DHT22;5809;53.262;10.408;2023-09-19T00:40:27;15.90;99.90
11505;DHT22;5809;53.262;10.408;2023-09-19T00:42:59;15.90;99.90
11505;DHT22;5809;53.262;10.408;2023-09-19T00:45:37;15.90;99.90
11505;DHT22;5809;53.262;10.408;2023-09-19T00:48:24;16.00;99.90
11505;DHT22;5809;53.262;10.408;2023-09-19T00:50:53;15.90;99.90
11505;DHT22;5809;53.262;10.408;2023-09-19T00:53:21;16.00;99.90
11505;DHT22;5809;53.262;10.408;2023-09-19T00:55:51;16.00;99.90
11505;DHT22;5809;53.262;10.408;2023-09-19T00:58:18;16.00;99.90
11505;DHT22;5809;53.262;10.408;2023-09-19T01:00:47;16.00;99.90
11505;DHT22;5809;53.262;10.408;2023-09-19T01:05:44;15.90;99.90
11505;DHT22;5809;53.262;10.408;2023-09-19T01:10:43;16.00;99.90
11505;DHT22;5809;53.262;10.408;2023-09-19T01:13:19;16.00;99.90
11505;DHT22;5809;53.262;10.408;2023-09-19T01:15:53;16.10;99.90
11505;DHT22;5809;53.262;10.408;2023-09-19T01:18:27;16.10;99.90
11505;DHT22;5809;53.262;10.408;2023-09-19T01:21:05;16.20;99.90
11505;DHT22;5809;53.262;10.408;2023-09-19T01:23:48;16.20;99.90
11505;DHT22;5809;53.262;10.408;2023-09-19T01:29:41;16.20;99.90
11505;DHT22;5809;53.262;10.408;2023-09-19T01:32:21;16.20;99.90
11505;DHT22;5809;53.262;10.408;2023-09-19T01:40:24;19.70;99.90
11505;DHT22;5809;53.262;10.408;2023-09-19T01:43:10;19.60;99.90
11505;DHT22;5809;53.262;10.408;2023-09-19T01:45:46;16.10;99.90
11505;DHT22;5809;53.262;10.408;2023-09-19T01:48:29;16.10;99.90
11505;DHT22;5809;53.262;10.408;2023-09-19T01:51:05;16.10;99.90
11505;DHT22;5809;53.262;10.408;2023-09-19T01:53:36;16.10;99.90
11505;DHT22;5809;53.262;10.408;2023-09-19T01:56:07;16.10;99.90
11505;DHT22;5809;53.262;10.408;2023-09-19T01:58:43;16.00;99.90
11505;DHT22;5809;53.262;10.408;2023-09-19T02:01:22;16.10;99.90
11505;DHT22;5809;53.262;10.408;2023-09-19T02:11:16;16.10;99.90
11505;DHT22;5809;53.262;10.408;2023-09-19T02:13:45;16.00;99.90
11505;DHT22;5809;53.262;10.408;2023-09-19T02:18:46;15.90;99.90
11505;DHT22;5809;53.262;10.408;2023-09-19T02:26:10;15.80;99.90
11505;DHT22;5809;53.262;10.408;2023-09-19T02:31:05;15.80;99.90
11505;DHT22;5809;53.262;10.408;2023-09-19T02:33:32;15.80;99.90
11505;DHT22;5809;53.262;10.408;2023-09-19T02:35:59;15.80;99.90
11505;DHT22;5809;53.262;10.408;2023-09-19T02:43:23;15.80;99.90
11505;DHT22;5809;53.262;10.408;2023-09-19T02:53:32;15.80;99.90
11505;DHT22;5809;53.262;10.408;2023-09-19T03:06:06;15.70;99.90
11505;DHT22;5809;53.262;10.408;2023-09-19T03:11:11;15.70;99.90
11505;DHT22;5809;53.262;10.408;2023-09-19T03:16:08;15.80;99.90
11505;DHT22;5809;53.262;10.408;2023-09-19T03:28:34;15.90;99.90
11505;DHT22;5809;53.262;10.408;2023-09-19T03:31:02;15.70;99.90
11505;DHT22;5809;53.262;10.408;2023-09-19T03:33:29;15.80;99.90
11505;DHT22;5809;53.262;10.408;2023-09-19T03:38:27;15.70;79.70
11505;DHT22;5809;53.262;10.408;2023-09-19T03:43:26;15.70;1.00
11505;DHT22;5809;53.262;10.408;2023-09-19T03:48:21;15.50;1.00
11505;DHT22;5809;53.262;10.408;2023-09-19T04:00:41;15.20;1.00
11505;DHT22;5809;53.262;10.408;2023-09-19T04:03:08;15.10;1.00
11505;DHT22;5809;53.262;10.408;2023-09-19T04:05:36;15.10;1.00
11505;DHT22;5809;53.262;10.408;2023-09-19T04:08:03;18.40;1.00
11505;DHT22;5809;53.262;10.408;2023-09-19T04:10:30;15.10;1.00
11505;DHT22;5809;53.262;10.408;2023-09-19T04:17:54;15.10;98.00
11505;DHT22;5809;53.262;10.408;2023-09-19T04:27:44;15.10;83.10
11505;DHT22;5809;53.262;10.408;2023-09-19T04:32:41;15.00;97.40
11505;DHT22;5809;53.262;10.408;2023-09-19T04:35:10;14.80;99.90
11505;DHT22;5809;53.262;10.408;2023-09-19T04:37:38;14.90;99.90
11505;DHT22;5809;53.262;10.408;2023-09-19T04:40:07;14.80;99.90
11505;DHT22;5809;53.262;10.408;2023-09-19T04:42:39;14.80;99.90
11505;DHT22;5809;53.262;10.408;2023-09-19T04:45:07;14.80;99.90
11505;DHT22;5809;53.262;10.408;2023-09-19T04:47:35;14.70;99.90
11505;DHT22;5809;53.262;10.408;2023-09-19T04:57:27;14.60;99.90
11505;DHT22;5809;53.262;10.408;2023-09-19T05:07:15;14.60;99.90
11505;DHT22;5809;53.262;10.408;2023-09-19T05:19:33;14.50;99.90
11505;DHT22;5809;53.262;10.408;2023-09-19T05:22:00;14.50;99.90
11505;DHT22;5809;53.262;10.408;2023-09-19T05:24:29;14.50;99.90
11505;DHT22;5809;53.262;10.408;2023-09-19T05:26:58;14.50;99.90
11505;DHT22;5809;53.262;10.408;2023-09-19T05:31:52;14.50;99.90
11505;DHT22;5809;53.262;10.408;2023-09-19T05:36:47;14.50;99.90
11505;DHT22;5809;53.262;10.408;2023-09-19T05:44:10;14.40;99.90
11505;DHT22;5809;53.262;10.408;2023-09-19T05:46:37;14.40;99.90
11505;DHT22;5809;53.262;10.408;2023-09-19T05:49:04;14.40;99.90
11505;DHT22;5809;53.262;10.408;2023-09-19T05:51:31;14.30;99.90
11505;DHT22;5809;53.262;10.408;2023-09-19T05:56:25;14.40;99.90
11505;DHT22;5809;53.262;10.408;2023-09-19T06:01:21;14.70;99.90
11505;DHT22;5809;53.262;10.408;2023-09-19T06:13:38;15.90;1.00
11505;DHT22;5809;53.262;10.408;2023-09-19T06:16:05;16.10;1.00
11505;DHT22;5809;53.262;10.408;2023-09-19T06:18:34;16.30;1.00
11505;DHT22;5809;53.262;10.408;2023-09-19T06:21:01;16.50;1.00
11505;DHT22;5809;53.262;10.408;2023-09-19T06:23:33;16.70;99.90
11505;DHT22;5809;53.262;10.408;2023-09-19T06:26:00;16.80;99.90
11505;DHT22;5809;53.262;10.408;2023-09-19T06:28:27;17.00;57.00
11505;DHT22;5809;53.262;10.408;2023-09-19T06:30:54;17.20;1.00
11505;DHT22;5809;53.262;10.408;2023-09-19T06:33:22;17.50;1.00
11505;DHT22;5809;53.262;10.408;2023-09-19T06:35:51;17.50;99.90
11505;DHT22;5809;53.262;10.408;2023-09-19T06:38:24;17.70;1.00
11505;DHT22;5809;53.262;10.408;2023-09-19T06:45:45;18.20;1.00
11505;DHT22;5809;53.262;10.408;2023-09-19T06:53:11;18.00;55.00
11505;DHT22;5809;53.262;10.408;2023-09-19T06:55:37;18.00;1.00
11505;DHT22;5809;53.262;10.408;2023-09-19T06:58:04;18.00;1.00
11505;DHT22;5809;53.262;10.408;2023-09-19T07:00:32;18.20;1.00
11505;DHT22;5809;53.262;10.408;2023-09-19T07:03:02;18.00;1.00
11505;DHT22;5809;53.262;10.408;2023-09-19T07:08:05;17.90;1.00
11505;DHT22;5809;53.262;10.408;2023-09-19T07:10:34;17.70;99.90
11505;DHT22;5809;53.262;10.408;2023-09-19T07:13:02;17.50;99.90
11505;DHT22;5809;53.262;10.408;2023-09-19T07:15:31;17.30;1.00
11505;DHT22;5809;53.262;10.408;2023-09-19T07:20:28;17.20;1.00
11505;DHT22;5809;53.262;10.408;2023-09-19T07:25:26;16.80;40.60
11505;DHT22;5809;53.262;10.408;2023-09-19T07:27:56;16.60;99.90
11505;DHT22;5809;53.262;10.408;2023-09-19T07:35:20;16.70;95.80
11505;DHT22;5809;53.262;10.408;2023-09-19T07:40:15;16.70;99.90
11505;DHT22;5809;53.262;10.408;2023-09-19T07:42:42;16.70;1.00
11505;DHT22;5809;53.262;10.408;2023-09-19T07:45:11;16.70;1.00
11505;DHT22;5809;53.262;10.408;2023-09-19T07:47:40;16.70;1.00
11505;DHT22;5809;53.262;10.408;2023-09-19T07:55:05;18.10;1.00
11505;DHT22;5809;53.262;10.408;2023-09-19T07:57:34;18.00;1.00
11505;DHT22;5809;53.262;10.408;2023-09-19T08:02:34;17.90;99.90
11505;DHT22;5809;53.262;10.408;2023-09-19T08:09:58;17.10;1.00
11505;DHT22;5809;53.262;10.408;2023-09-19T08:14:52;17.30;1.00
11505;DHT22;5809;53.262;10.408;2023-09-19T08:17:20;17.50;1.00
11505;DHT22;5809;53.262;10.408;2023-09-19T08:19:49;17.90;99.90
11505;DHT22;5809;53.262;10.408;2023-09-19T08:22:18;18.20;99.90
11505;DHT22;5809;53.262;10.408;2023-09-19T08:24:45;18.20;15.90
11505;DHT22;5809;53.262;10.408;2023-09-19T08:27:13;18.10;99.90
11505;DHT22;5809;53.262;10.408;2023-09-19T08:34:35;18.30;99.90
11505;DHT22;5809;53.262;10.408;2023-09-19T08:37:05;18.60;99.90
11505;DHT22;5809;53.262;10.408;2023-09-19T08:39:32;18.70;1.00
11505;DHT22;5809;53.262;10.408;2023-09-19T08:42:02;18.50;1.00
11505;DHT22;5809;53.262;10.408;2023-09-19T08:44:30;18.10;1.30
11505;DHT22;5809;53.262;10.408;2023-09-19T08:47:09;18.00;21.20
11505;DHT22;5809;53.262;10.408;2023-09-19T08:49:43;17.80;1.00
11505;DHT22;5809;53.262;10.408;2023-09-19T08:52:22;17.70;99.90
11505;DHT22;5809;53.262;10.408;2023-09-19T08:54:52;17.70;99.90
11505;DHT22;5809;53.262;10.408;2023-09-19T08:57:20;17.60;1.00
11505;DHT22;5809;53.262;10.408;2023-09-19T09:02:16;17.70;99.90
11505;DHT22;5809;53.262;10.408;2023-09-19T09:04:45;18.00;1.00
11505;DHT22;5809;53.262;10.408;2023-09-19T09:07:12;18.50;1.00
11505;DHT22;5809;53.262;10.408;2023-09-19T09:09:41;19.00;99.90
11505;DHT22;5809;53.262;10.408;2023-09-19T09:12:11;19.30;46.40
11505;DHT22;5809;53.262;10.408;2023-09-19T09:19:34;19.50;1.00
11505;DHT22;5809;53.262;10.408;2023-09-19T09:22:08;19.60;50.10
11505;DHT22;5809;53.262;10.408;2023-09-19T09:24:35;19.80;1.00
11505;DHT22;5809;53.262;10.408;2023-09-19T09:27:06;19.90;1.00
11505;DHT22;5809;53.262;10.408;2023-09-19T09:29:42;19.90;1.00
11505;DHT22;5809;53.262;10.408;2023-09-19T09:32:23;20.00;1.00
11505;DHT22;5809;53.262;10.408;2023-09-19T09:34:54;20.00;1.00
11505;DHT22;5809;53.262;10.408;2023-09-19T09:37:22;20.00;99.90
11505;DHT22;5809;53.262;10.408;2023-09-19T09:39:51;20.00;99.90
11505;DHT22;5809;53.262;10.408;2023-09-19T09:42:31;20.20;99.90
11505;DHT22;5809;53.262;10.408;2023-09-19T09:45:13;20.10;99.90
11505;DHT22;5809;53.262;10.408;2023-09-19T09:47:45;19.90;99.90
11505;DHT22;5809;53.262;10.408;2023-09-19T09:50:29;19.90;99.90
11505;DHT22;5809;53.262;10.408;2023-09-19T09:53:19;19.40;99.90
11505;DHT22;5809;53.262;10.408;2023-09-19T09:56:00;19.30;99.90
11505;DHT22;5809;53.262;10.408;2023-09-19T09:58:29;19.20;1.00
11505;DHT22;5809;53.262;10.408;2023-09-19T10:00:58;19.60;1.00
11505;DHT22;5809;53.262;10.408;2023-09-19T10:03:33;20.00;99.90
11505;DHT22;5809;53.262;10.408;2023-09-19T10:06:09;20.00;99.90
11505;DHT22;5809;53.262;10.408;2023-09-19T10:09:01;19.60;99.90
11505;DHT22;5809;53.262;10.408;2023-09-19T10:11:44;19.70;99.90
11505;DHT22;5809;53.262;10.408;2023-09-19T10:14:15;19.90;99.90
11505;DHT22;5809;53.262;10.408;2023-09-19T10:16:46;19.90;99.90
11505;DHT22;5809;53.262;10.408;2023-09-19T10:19:16;19.90;99.90
11505;DHT22;5809;53.262;10.408;2023-09-19T10:21:48;20.40;99.90
11505;DHT22;5809;53.262;10.408;2023-09-19T10:24:17;20.70;99.90
11505;DHT22;5809;53.262;10.408;2023-09-19T10:26:45;21.10;1.00
11505;DHT22;5809;53.262;10.408;2023-09-19T10:29:18;21.10;1.00
11505;DHT22;5809;53.262;10.408;2023-09-19T10:31:47;20.30;99.90
11505;DHT22;5809;53.262;10.408;2023-09-19T10:34:14;20.00;99.90
11505;DHT22;5809;53.262;10.408;2023-09-19T10:36:45;20.20;99.90
11505;DHT22;5809;53.262;10.408;2023-09-19T10:39:15;20.30;99.90
11505;DHT22;5809;53.262;10.408;2023-09-19T10:41:49;20.00;99.90
11505;DHT22;5809;53.262;10.408;2023-09-19T10:44:23;19.70;99.90
11505;DHT22;5809;53.262;10.408;2023-09-19T10:46:51;19.60;99.90
11505;DHT22;5809;53.262;10.408;2023-09-19T10:49:19;19.10;99.90
11505;DHT22;5809;53.262;10.408;2023-09-19T10:51:48;19.10;99.90
11505;DHT22;5809;53.262;10.408;2023-09-19T10:54:18;19.20;1.00
11505;DHT22;5809;53.262;10.408;2023-09-19T10:56:49;19.10;1.00
11505;DHT22;5809;53.262;10.408;2023-09-19T10:59:18;19.20;99.90
11505;DHT22;5809;53.262;10.408;2023-09-19T11:01:48;19.80;99.90
11505;DHT22;5809;53.262;10.408;2023-09-19T11:07:03;20.10;1.00
11505;DHT22;5809;53.262;10.408;2023-09-19T11:09:48;20.00;1.00
11505;DHT22;5809;53.262;10.408;2023-09-19T11:18:53;19.00;1.00
11505;DHT22;5809;53.262;10.408;2023-09-19T11:21:53;19.10;1.00
11505;DHT22;5809;53.262;10.408;2023-09-19T11:24:31;19.30;99.90
11505;DHT22;5809;53.262;10.408;2023-09-19T11:27:11;19.40;1.00
11505;DHT22;5809;53.262;10.408;2023-09-19T11:29:39;19.60;1.00
11505;DHT22;5809;53.262;10.408;2023-09-19T11:32:06;19.90;1.00
11505;DHT22;5809;53.262;10.408;2023-09-19T11:34:49;19.80;99.90
11505;DHT22;5809;53.262;10.408;2023-09-19T11:40:36;19.20;1.00
11505;DHT22;5809;53.262;10.408;2023-09-19T11:43:28;19.50;1.00
11505;DHT22;5809;53.262;10.408;2023-09-19T11:46:08;19.50;1.00
11505;DHT22;5809;53.262;10.408;2023-09-19T11:48:38;20.20;1.00
11505;DHT22;5809;53.262;10.408;2023-09-19T11:51:15;20.10;1.00
11505;DHT22;5809;53.262;10.408;2023-09-19T11:53:48;20.20;1.00
11505;DHT22;5809;53.262;10.408;2023-09-19T11:56:17;20.30;12.00
11505;DHT22;5809;53.262;10.408;2023-09-19T11:58:44;20.20;1.00
11505;DHT22;5809;53.262;10.408;2023-09-19T12:01:13;20.50;1.00
11505;DHT22;5809;53.262;10.408;2023-09-19T12:03:47;20.80;99.90
11505;DHT22;5809;53.262;10.408;2023-09-19T12:06:16;20.80;99.90
11505;DHT22;5809;53.262;10.408;2023-09-19T12:08:44;21.20;1.00
11505;DHT22;5809;53.262;10.408;2023-09-19T12:11:13;21.30;1.00
11505;DHT22;5809;53.262;10.408;2023-09-19T12:13:43;20.90;99.90
11505;DHT22;5809;53.262;10.408;2023-09-19T12:16:15;20.70;1.00
11505;DHT22;5809;53.262;10.408;2023-09-19T12:21:23;20.30;99.90
11505;DHT22;5809;53.262;10.408;2023-09-19T12:24:06;20.20;99.90
11505;DHT22;5809;53.262;10.408;2023-09-19T12:26:40;20.60;99.90
11505;DHT22;5809;53.262;10.408;2023-09-19T12:29:15;20.80;99.90
11505;DHT22;5809;53.262;10.408;2023-09-19T12:31:51;20.70;99.90
11505;DHT22;5809;53.262;10.408;2023-09-19T12:34:21;21.30;1.00
11505;DHT22;5809;53.262;10.408;2023-09-19T12:37:04;21.80;1.00
11505;DHT22;5809;53.262;10.408;2023-09-19T12:39:37;22.10;1.00
11505;DHT22;5809;53.262;10.408;2023-09-19T12:42:04;21.40;1.00
11505;DHT22;5809;53.262;10.408;2023-09-19T12:44:34;21.10;99.90
11505;DHT22;5809;53.262;10.408;2023-09-19T12:47:09;21.30;99.90
11505;DHT22;5809;53.262;10.408;2023-09-19T12:49:36;25.60;99.90
11505;DHT22;5809;53.262;10.408;2023-09-19T12:52:05;21.60;99.90
11505;DHT22;5809;53.262;10.408;2023-09-19T12:54:38;21.30;1.00
11505;DHT22;5809;53.262;10.408;2023-09-19T12:57:05;21.10;99.90
11505;DHT22;5809;53.262;10.408;2023-09-19T12:59:32;21.10;99.90
11505;DHT22;5809;53.262;10.408;2023-09-19T13:02:05;21.00;99.90
11505;DHT22;5809;53.262;10.408;2023-09-19T13:04:39;20.80;98.30
11505;DHT22;5809;53.262;10.408;2023-09-19T13:07:42;20.80;2.30
11505;DHT22;5809;53.262;10.408;2023-09-19T13:12:42;21.30;1.00
11505;DHT22;5809;53.262;10.408;2023-09-19T13:15:13;21.70;99.90
11505;DHT22;5809;53.262;10.408;2023-09-19T13:17:43;21.70;1.00
11505;DHT22;5809;53.262;10.408;2023-09-19T13:20:21;20.90;1.00
11505;DHT22;5809;53.262;10.408;2023-09-19T13:22:54;20.50;1.00
11505;DHT22;5809;53.262;10.408;2023-09-19T13:25:24;20.50;1.00
11505;DHT22;5809;53.262;10.408;2023-09-19T13:27:52;20.50;99.90
11505;DHT22;5809;53.262;10.408;2023-09-19T13:30:22;20.50;99.90
11505;DHT22;5809;53.262;10.408;2023-09-19T13:32:51;21.10;1.00
11505;DHT22;5809;53.262;10.408;2023-09-19T13:35:18;22.00;99.90
11505;DHT22;5809;53.262;10.408;2023-09-19T13:37:46;21.90;99.90
11505;DHT22;5809;53.262;10.408;2023-09-19T13:40:16;21.70;99.90
11505;DHT22;5809;53.262;10.408;2023-09-19T13:42:43;21.70;99.90
11505;DHT22;5809;53.262;10.408;2023-09-19T13:47:37;21.20;1.00
11505;DHT22;5809;53.262;10.408;2023-09-19T13:50:06;21.40;1.00
11505;DHT22;5809;53.262;10.408;2023-09-19T13:52:33;21.40;1.00
11505;DHT22;5809;53.262;10.408;2023-09-19T13:55:00;22.20;99.90
11505;DHT22;5809;53.262;10.408;2023-09-19T13:57:28;22.20;99.90
11505;DHT22;5809;53.262;10.408;2023-09-19T13:59:55;23.10;79.20
11505;DHT22;5809;53.262;10.408;2023-09-19T14:02:22;23.50;99.90
11505;DHT22;5809;53.262;10.408;2023-09-19T14:04:50;22.80;99.90
11505;DHT22;5809;53.262;10.408;2023-09-19T14:07:17;22.80;99.90
11505;DHT22;5809;53.262;10.408;2023-09-19T14:09:45;22.60;99.90
11505;DHT22;5809;53.262;10.408;2023-09-19T14:14:41;22.80;99.90
11505;DHT22;5809;53.262;10.408;2023-09-19T14:17:08;21.90;99.90
11505;DHT22;5809;53.262;10.408;2023-09-19T14:19:35;22.00;99.90
11505;DHT22;5809;53.262;10.408;2023-09-19T14:22:02;23.40;99.90
11505;DHT22;5809;53.262;10.408;2023-09-19T14:27:00;22.20;1.00
11505;DHT22;5809;53.262;10.408;2023-09-19T14:29:29;21.90;99.90
11505;DHT22;5809;53.262;10.408;2023-09-19T14:31:57;22.20;97.80
11505;DHT22;5809;53.262;10.408;2023-09-19T14:34:24;22.20;1.00
11505;DHT22;5809;53.262;10.408;2023-09-19T14:36:51;21.80;1.00
11505;DHT22;5809;53.262;10.408;2023-09-19T14:44:14;20.60;57.20
11505;DHT22;5809;53.262;10.408;2023-09-19T14:46:41;20.80;1.00
11505;DHT22;5809;53.262;10.408;2023-09-19T14:49:10;20.80;99.90
11505;DHT22;5809;53.262;10.408;2023-09-19T14:51:38;21.00;1.00
11505;DHT22;5809;53.262;10.408;2023-09-19T14:54:06;20.60;1.00
11505;DHT22;5809;53.262;10.408;2023-09-19T14:56:34;20.00;82.30
11505;DHT22;5809;53.262;10.408;2023-09-19T14:59:00;19.60;99.90
11505;DHT22;5809;53.262;10.408;2023-09-19T15:01:28;19.40;1.00
11505;DHT22;5809;53.262;10.408;2023-09-19T15:03:55;19.30;99.90
11505;DHT22;5809;53.262;10.408;2023-09-19T15:06:23;19.20;99.90
11505;DHT22;5809;53.262;10.408;2023-09-19T15:08:51;19.30;99.90
11505;DHT22;5809;53.262;10.408;2023-09-19T15:11:19;19.30;99.90
11505;DHT22;5809;53.262;10.408;2023-09-19T15:13:47;19.50;1.00
11505;DHT22;5809;53.262;10.408;2023-09-19T15:16:14;19.70;56.80
11505;DHT22;5809;53.262;10.408;2023-09-19T15:18:42;20.10;99.90
11505;DHT22;5809;53.262;10.408;2023-09-19T15:21:09;20.50;1.00
11505;DHT22;5809;53.262;10.408;2023-09-19T15:23:39;20.20;1.00
11505;DHT22;5809;53.262;10.408;2023-09-19T15:26:07;20.10;1.00
11505;DHT22;5809;53.262;10.408;2023-09-19T15:28:35;19.90;1.00
11505;DHT22;5809;53.262;10.408;2023-09-19T15:31:03;19.70;99.90
11505;DHT22;5809;53.262;10.408;2023-09-19T15:33:31;19.70;1.00
11505;DHT22;5809;53.262;10.408;2023-09-19T15:36:03;19.80;99.90
11505;DHT22;5809;53.262;10.408;2023-09-19T15:38:31;19.80;99.90
11505;DHT22;5809;53.262;10.408;2023-09-19T15:40:59;19.90;1.00
11505;DHT22;5809;53.262;10.408;2023-09-19T15:43:26;19.50;99.90
11505;DHT22;5809;53.262;10.408;2023-09-19T15:45:53;19.40;1.00
11505;DHT22;5809;53.262;10.408;2023-09-19T15:50:47;19.20;1.00
11505;DHT22;5809;53.262;10.408;2023-09-19T15:58:12;19.00;1.00
11505;DHT22;5809;53.262;10.408;2023-09-19T16:00:42;19.00;1.00
11505;DHT22;5809;53.262;10.408;2023-09-19T16:03:09;19.00;1.00
11505;DHT22;5809;53.262;10.408;2023-09-19T16:05:36;19.00;1.00
11505;DHT22;5809;53.262;10.408;2023-09-19T16:08:06;19.00;99.90
11505;DHT22;5809;53.262;10.408;2023-09-19T16:10:37;19.00;99.90
11505;DHT22;5809;53.262;10.408;2023-09-19T16:13:04;19.10;99.90
11505;DHT22;5809;53.262;10.408;2023-09-19T16:17:59;18.90;99.90
11505;DHT22;5809;53.262;10.408;2023-09-19T16:20:28;18.90;99.90
11505;DHT22;5809;53.262;10.408;2023-09-19T16:25:22;18.80;1.00
11505;DHT22;5809;53.262;10.408;2023-09-19T16:27:49;18.70;99.90
11505;DHT22;5809;53.262;10.408;2023-09-19T16:30:16;18.70;1.00
11505;DHT22;5809;53.262;10.408;2023-09-19T16:32:45;18.70;1.00
11505;DHT22;5809;53.262;10.408;2023-09-19T16:40:07;18.70;1.00
11505;DHT22;5809;53.262;10.408;2023-09-19T16:45:03;18.60;99.90
11505;DHT22;5809;53.262;10.408;2023-09-19T16:47:30;18.70;1.00
11505;DHT22;5809;53.262;10.408;2023-09-19T16:49:58;18.60;29.30
11505;DHT22;5809;53.262;10.408;2023-09-19T16:54:52;18.60;99.90
11505;DHT22;5809;53.262;10.408;2023-09-19T16:59:47;18.60;99.90
11505;DHT22;5809;53.262;10.408;2023-09-19T17:02:15;18.60;99.90
11505;DHT22;5809;53.262;10.408;2023-09-19T17:04:42;18.60;99.90
11505;DHT22;5809;53.262;10.408;2023-09-19T17:07:11;18.60;99.90
11505;DHT22;5809;53.262;10.408;2023-09-19T17:09:37;18.60;99.90
11505;DHT22;5809;53.262;10.408;2023-09-19T17:12:05;18.60;99.90
11505;DHT22;5809;53.262;10.408;2023-09-19T17:14:34;18.50;99.90
11505;DHT22;5809;53.262;10.408;2023-09-19T17:17:01;18.60;1.00
11505;DHT22;5809;53.262;10.408;2023-09-19T17:19:29;18.40;99.90
11505;DHT22;5809;53.262;10.408;2023-09-19T17:21:56;18.50;99.90
11505;DHT22;5809;53.262;10.408;2023-09-19T17:24:24;18.50;99.90
11505;DHT22;5809;53.262;10.408;2023-09-19T17:31:45;18.50;99.90
11505;DHT22;5809;53.262;10.408;2023-09-19T17:36:41;18.40;99.90
11505;DHT22;5809;53.262;10.408;2023-09-19T17:39:08;18.40;99.90
11505;DHT22;5809;53.262;10.408;2023-09-19T17:41:41;18.40;99.90
11505;DHT22;5809;53.262;10.408;2023-09-19T17:44:08;18.40;99.90
11505;DHT22;5809;53.262;10.408;2023-09-19T17:46:37;18.40;99.90
11505;DHT22;5809;53.262;10.408;2023-09-19T17:49:04;18.40;99.90
11505;DHT22;5809;53.262;10.408;2023-09-19T17:51:31;18.40;99.90
11505;DHT22;5809;53.262;10.408;2023-09-19T17:56:28;18.40;99.90
11505;DHT22;5809;53.262;10.408;2023-09-19T17:58:56;18.40;99.90
11505;DHT22;5809;53.262;10.408;2023-09-19T18:01:25;18.40;99.90
11505;DHT22;5809;53.262;10.408;2023-09-19T18:03:53;18.30;99.90
11505;DHT22;5809;53.262;10.408;2023-09-19T18:06:23;18.30;99.90
11505;DHT22;5809;53.262;10.408;2023-09-19T18:08:51;18.30;99.90
11505;DHT22;5809;53.262;10.408;2023-09-19T18:11:18;18.30;99.90
11505;DHT22;5809;53.262;10.408;2023-09-19T18:13:49;18.30;99.90
11505;DHT22;5809;53.262;10.408;2023-09-19T18:16:21;18.40;99.90
11505;DHT22;5809;53.262;10.408;2023-09-19T18:18:49;18.40;99.90
11505;DHT22;5809;53.262;10.408;2023-09-19T18:21:18;18.40;99.90
11505;DHT22;5809;53.262;10.408;2023-09-19T18:23:50;18.30;99.90
11505;DHT22;5809;53.262;10.408;2023-09-19T18:26:17;18.30;99.90
11505;DHT22;5809;53.262;10.408;2023-09-19T18:28:44;18.30;99.90
11505;DHT22;5809;53.262;10.408;2023-09-19T18:31:11;18.40;99.90
11505;DHT22;5809;53.262;10.408;2023-09-19T18:33:39;18.40;99.90
11505;DHT22;5809;53.262;10.408;2023-09-19T18:36:07;18.30;99.90
11505;DHT22;5809;53.262;10.408;2023-09-19T18:38:37;18.30;99.90
11505;DHT22;5809;53.262;10.408;2023-09-19T18:41:06;18.40;99.90
11505;DHT22;5809;53.262;10.408;2023-09-19T18:43:33;18.40;99.90
11505;DHT22;5809;53.262;10.408;2023-09-19T18:46:03;18.40;99.90
11505;DHT22;5809;53.262;10.408;2023-09-19T18:48:34;18.40;99.90
11505;DHT22;5809;53.262;10.408;2023-09-19T18:51:05;18.30;99.90
11505;DHT22;5809;53.262;10.408;2023-09-19T18:53:32;18.30;99.90
11505;DHT22;5809;53.262;10.408;2023-09-19T18:56:04;18.30;99.90
11505;DHT22;5809;53.262;10.408;2023-09-19T18:58:31;18.30;99.90
11505;DHT22;5809;53.262;10.408;2023-09-19T19:01:01;18.30;99.90
11505;DHT22;5809;53.262;10.408;2023-09-19T19:05:55;18.30;99.90
11505;DHT22;5809;53.262;10.408;2023-09-19T19:08:25;18.30;99.90
11505;DHT22;5809;53.262;10.408;2023-09-19T19:10:52;18.40;99.90
11505;DHT22;5809;53.262;10.408;2023-09-19T19:15:46;18.40;99.90
11505;DHT22;5809;53.262;10.408;2023-09-19T19:23:08;18.30;99.90
11505;DHT22;5809;53.262;10.408;2023-09-19T19:25:45;18.30;99.90
11505;DHT22;5809;53.262;10.408;2023-09-19T19:28:13;18.30;99.90
11505;DHT22;5809;53.262;10.408;2023-09-19T19:30:43;18.40;99.90
11505;DHT22;5809;53.262;10.408;2023-09-19T19:33:12;18.40;99.90
11505;DHT22;5809;53.262;10.408;2023-09-19T19:35:39;18.30;99.90
11505;DHT22;5809;53.262;10.408;2023-09-19T19:38:07;18.30;99.90
11505;DHT22;5809;53.262;10.408;2023-09-19T19:40:34;18.40;99.90
11505;DHT22;5809;53.262;10.408;2023-09-19T19:43:03;18.30;99.90
11505;DHT22;5809;53.262;10.408;2023-09-19T19:45:30;18.30;99.90
11505;DHT22;5809;53.262;10.408;2023-09-19T19:47:57;18.40;99.90
11505;DHT22;5809;53.262;10.408;2023-09-19T19:50:27;18.30;99.90
11505;DHT22;5809;53.262;10.408;2023-09-19T19:57:52;18.40;99.90
11505;DHT22;5809;53.262;10.408;2023-09-19T20:00:22;18.40;99.90
11505;DHT22;5809;53.262;10.408;2023-09-19T20:02:49;18.30;99.90
11505;DHT22;5809;53.262;10.408;2023-09-19T20:05:16;18.40;99.90
11505;DHT22;5809;53.262;10.408;2023-09-19T20:07:43;18.30;99.90
11505;DHT22;5809;53.262;10.408;2023-09-19T20:10:11;18.30;99.90
11505;DHT22;5809;53.262;10.408;2023-09-19T20:12:39;18.30;99.90
11505;DHT22;5809;53.262;10.408;2023-09-19T20:15:06;18.30;99.90
11505;DHT22;5809;53.262;10.408;2023-09-19T20:17:36;18.30;99.90
11505;DHT22;5809;53.262;10.408;2023-09-19T20:20:04;18.30;99.90
11505;DHT22;5809;53.262;10.408;2023-09-19T20:22:38;18.30;99.90
11505;DHT22;5809;53.262;10.408;2023-09-19T20:25:06;18.30;99.90
11505;DHT22;5809;53.262;10.408;2023-09-19T20:27:33;18.30;99.90
11505;DHT22;5809;53.262;10.408;2023-09-19T20:32:27;18.20;99.90
11505;DHT22;5809;53.262;10.408;2023-09-19T20:34:55;18.20;99.90
11505;DHT22;5809;53.262;10.408;2023-09-19T20:37:25;18.20;99.90
11505;DHT22;5809;53.262;10.408;2023-09-19T20:42:19;18.30;99.90
11505;DHT22;5809;53.262;10.408;2023-09-19T20:44:47;18.20;99.90
11505;DHT22;5809;53.262;10.408;2023-09-19T20:47:13;18.20;99.90
11505;DHT22;5809;53.262;10.408;2023-09-19T20:52:09;18.20;99.90
11505;DHT22;5809;53.262;10.408;2023-09-19T20:54:36;18.20;99.90
11505;DHT22;5809;53.262;10.408;2023-09-19T20:57:03;18.10;99.90
11505;DHT22;5809;53.262;10.408;2023-09-19T20:59:30;18.20;99.90
11505;DHT22;5809;53.262;10.408;2023-09-19T21:01:57;18.20;99.90
11505;DHT22;5809;53.262;10.408;2023-09-19T21:04:24;18.20;99.90